createdAt,value
2023-05-21T00:00:41.008Z,16.05
2023-05-21T00:03:14.004Z,15.97
2023-05-21T00:05:41.886Z,16.19
2023-05-21T00:08:11.206Z,15.55
2023-05-21T00:10:38.942Z,15.85
2023-05-21T00:13:06.725Z,15.99
2023-05-21T00:15:34.628Z,15.85
2023-05-21T00:18:02.635Z,15.44
2023-05-21T00:20:32.221Z,15.63
2023-05-21T00:23:02.883Z,15.39
2023-05-21T00:25:32.527Z,15.75
2023-05-21T00:28:00.295Z,15.74
2023-05-21T00:30:28.060Z,15.77
2023-05-21T00:32:58.965Z,15.15
2023-05-21T00:35:26.828Z,15.69
2023-05-21T00:37:54.643Z,15.53
2023-05-21T00:40:22.636Z,15.54
2023-05-21T00:42:51.720Z,15.52
2023-05-21T00:45:19.700Z,15.71
2023-05-21T00:47:48.539Z,15.69
2023-05-21T00:50:17.497Z,15.78
2023-05-21T00:52:45.715Z,15.88
2023-05-21T00:55:13.609Z,15.71
2023-05-21T00:57:42.485Z,15.60
2023-05-21T01:00:14.663Z,15.75
2023-05-21T01:02:44.257Z,15.94
2023-05-21T01:05:12.340Z,15.80
2023-05-21T01:07:42.488Z,15.68
2023-05-21T01:10:12.631Z,15.75
2023-05-21T01:12:43.697Z,15.17
2023-05-21T01:15:13.442Z,15.41
2023-05-21T01:17:42.156Z,15.23
2023-05-21T01:20:11.402Z,14.96
2023-05-21T01:22:44.678Z,15.21
2023-05-21T01:25:15.045Z,15.05
2023-05-21T01:27:42.909Z,14.96
2023-05-21T01:30:11.798Z,15.14
2023-05-21T01:32:46.236Z,15.14
2023-05-21T01:35:18.523Z,15.28
2023-05-21T01:37:51.823Z,15.14
2023-05-21T01:40:24.516Z,14.97
2023-05-21T01:42:53.671Z,15.08
2023-05-21T01:45:23.530Z,14.98
2023-05-21T01:47:55.033Z,14.57
2023-05-21T01:50:24.787Z,14.82
2023-05-21T01:52:53.611Z,14.91
2023-05-21T01:55:24.851Z,15.06
2023-05-21T01:57:53.965Z,14.99
2023-05-21T02:00:22.686Z,14.88
2023-05-21T02:02:50.948Z,14.72
2023-05-21T02:05:19.376Z,14.52
2023-05-21T02:07:48.319Z,14.64
2023-05-21T02:10:16.185Z,14.50
2023-05-21T02:12:46.046Z,14.54
2023-05-21T02:15:14.250Z,14.70
2023-05-21T02:17:42.470Z,14.88
2023-05-21T02:20:12.205Z,14.74
2023-05-21T02:22:40.366Z,14.69
2023-05-21T02:25:09.887Z,14.58
2023-05-21T02:27:38.859Z,14.71
2023-05-21T02:30:12.878Z,14.89
2023-05-21T02:32:42.863Z,14.77
2023-05-21T02:35:12.412Z,14.75
2023-05-21T02:37:41.220Z,14.77
2023-05-21T02:40:10.795Z,14.96
2023-05-21T02:42:40.021Z,15.10
2023-05-21T02:45:11.244Z,15.07
2023-05-21T02:47:39.349Z,14.98
2023-05-21T02:50:08.671Z,14.87
2023-05-21T02:52:36.541Z,15.01
2023-05-21T02:55:04.545Z,14.76
2023-05-21T02:57:32.435Z,14.84
2023-05-21T03:00:00.199Z,14.76
2023-05-21T03:02:30.309Z,14.92
2023-05-21T03:04:58.779Z,14.85
2023-05-21T03:07:26.762Z,14.76
2023-05-21T03:09:54.609Z,14.37
2023-05-21T03:12:22.399Z,14.68
2023-05-21T03:14:51.339Z,14.72
2023-05-21T03:17:19.230Z,14.51
2023-05-21T03:19:49.090Z,14.54
2023-05-21T03:22:16.906Z,14.40
2023-05-21T03:24:45.128Z,14.66
2023-05-21T03:27:12.931Z,14.62
2023-05-21T03:29:41.016Z,14.58
2023-05-21T03:32:09.172Z,14.60
2023-05-21T03:34:37.321Z,14.40
2023-05-21T03:37:06.692Z,14.59
2023-05-21T03:39:34.437Z,14.56
2023-05-21T03:42:02.170Z,14.58
2023-05-21T03:44:32.393Z,14.47
2023-05-21T03:47:00.226Z,14.57
2023-05-21T03:49:27.945Z,14.20
2023-05-21T03:51:55.688Z,14.18
2023-05-21T03:54:24.801Z,14.49
2023-05-21T03:56:52.574Z,14.53
2023-05-21T03:59:20.388Z,14.45
2023-05-21T04:01:48.251Z,14.45
2023-05-21T04:04:16.308Z,14.41
2023-05-21T04:06:44.528Z,14.45
2023-05-21T04:09:12.960Z,14.33
2023-05-21T04:11:42.111Z,14.15
2023-05-21T04:14:09.890Z,14.34
2023-05-21T04:16:38.632Z,14.44
2023-05-21T04:19:07.406Z,14.28
2023-05-21T04:21:36.330Z,14.38
2023-05-21T04:24:04.152Z,14.17
2023-05-21T04:26:33.854Z,14.01
2023-05-21T04:29:04.931Z,14.02
2023-05-21T04:31:33.186Z,13.86
2023-05-21T04:34:01.055Z,13.97
2023-05-21T04:36:30.164Z,14.24
2023-05-21T04:38:58.012Z,14.11
2023-05-21T04:41:25.789Z,13.76
2023-05-21T04:43:55.396Z,13.81
2023-05-21T04:46:25.717Z,14.04
2023-05-21T04:48:55.042Z,14.14
2023-05-21T04:51:24.635Z,14.08
2023-05-21T04:53:53.850Z,13.77
2023-05-21T04:56:22.849Z,14.09
2023-05-21T04:58:50.801Z,14.28
2023-05-21T05:01:19.016Z,13.85
2023-05-21T05:03:48.253Z,13.97
2023-05-21T05:06:16.687Z,13.72
2023-05-21T05:08:44.674Z,13.83
2023-05-21T05:11:12.459Z,13.74
2023-05-21T05:13:41.510Z,13.84
2023-05-21T05:16:09.449Z,13.80
2023-05-21T05:18:37.386Z,13.72
2023-05-21T05:21:06.515Z,13.79
2023-05-21T05:23:34.252Z,14.09
2023-05-21T05:26:02.046Z,14.26
2023-05-21T05:28:29.821Z,14.34
2023-05-21T05:30:57.574Z,13.91
2023-05-21T05:33:25.395Z,14.12
2023-05-21T05:35:53.107Z,14.03
2023-05-21T05:38:22.285Z,14.52
2023-05-21T05:40:50.088Z,14.41
2023-05-21T05:43:17.859Z,14.92
2023-05-21T05:45:45.681Z,14.59
2023-05-21T05:48:13.445Z,14.72
2023-05-21T05:50:41.597Z,14.08
2023-05-21T05:53:09.379Z,14.60
2023-05-21T05:55:38.682Z,14.96
2023-05-21T05:58:06.781Z,14.17
2023-05-21T06:00:34.743Z,14.42
2023-05-21T06:03:02.616Z,13.96
2023-05-21T06:05:30.554Z,14.65
2023-05-21T06:07:58.496Z,14.60
2023-05-21T06:10:26.218Z,14.69
2023-05-21T06:12:55.361Z,14.83
2023-05-21T06:15:23.361Z,14.93
2023-05-21T06:17:51.200Z,14.95
2023-05-21T06:20:19.163Z,14.65
2023-05-21T06:22:46.927Z,15.27
2023-05-21T06:25:14.714Z,14.92
2023-05-21T06:27:42.516Z,15.02
2023-05-21T06:30:12.130Z,15.23
2023-05-21T06:32:39.988Z,15.14
2023-05-21T06:35:08.435Z,15.20
2023-05-21T06:37:36.213Z,14.78
2023-05-21T06:40:04.877Z,14.84
2023-05-21T06:42:32.653Z,14.98
2023-05-21T06:45:00.500Z,15.30
2023-05-21T06:47:29.638Z,15.00
2023-05-21T06:49:57.544Z,14.79
2023-05-21T06:52:26.623Z,14.70
2023-05-21T06:54:54.380Z,15.03
2023-05-21T06:57:22.134Z,15.18
2023-05-21T06:59:49.847Z,15.45
2023-05-21T07:02:17.901Z,16.07
2023-05-21T07:04:47.155Z,15.99
2023-05-21T07:07:14.983Z,15.17
2023-05-21T07:09:42.785Z,15.29
2023-05-21T07:12:10.511Z,15.45
2023-05-21T07:14:38.276Z,15.69
2023-05-21T07:17:06.132Z,16.24
2023-05-21T07:19:33.963Z,16.42
2023-05-21T07:22:03.194Z,15.88
2023-05-21T07:24:31.093Z,15.63
2023-05-21T07:26:58.876Z,16.24
2023-05-21T07:29:26.651Z,16.53
2023-05-21T07:31:54.436Z,16.71
2023-05-21T07:34:22.591Z,17.04
2023-05-21T07:36:50.311Z,17.21
2023-05-21T07:39:19.492Z,16.74
2023-05-21T07:41:47.290Z,16.88
2023-05-21T07:44:15.081Z,17.10
2023-05-21T07:46:42.922Z,17.01
2023-05-21T07:49:16.517Z,17.18
2023-05-21T07:51:45.143Z,17.15
2023-05-21T07:54:12.871Z,16.83
2023-05-21T07:56:41.976Z,16.96
2023-05-21T07:59:10.031Z,16.92
2023-05-21T08:01:38.947Z,17.10
2023-05-21T08:04:06.854Z,17.03
2023-05-21T08:06:35.021Z,17.70
2023-05-21T08:09:02.759Z,17.97
2023-05-21T08:11:31.095Z,17.68
2023-05-21T08:14:00.231Z,17.66
2023-05-21T08:16:28.258Z,17.88
2023-05-21T08:18:56.146Z,18.03
2023-05-21T08:21:24.193Z,18.15
2023-05-21T08:23:53.972Z,18.29
2023-05-21T08:26:21.971Z,17.90
2023-05-21T08:28:49.803Z,17.61
2023-05-21T08:31:20.812Z,17.58
2023-05-21T08:33:51.995Z,17.60
2023-05-21T08:36:20.070Z,18.09
2023-05-21T08:38:47.876Z,18.09
2023-05-21T08:41:16.506Z,17.83
2023-05-21T08:43:49.860Z,17.65
2023-05-21T08:46:24.044Z,18.15
2023-05-21T08:48:54.907Z,18.33
2023-05-21T08:51:23.247Z,18.33
2023-05-21T08:53:51.988Z,18.39
2023-05-21T08:56:20.102Z,18.13
2023-05-21T08:58:48.081Z,18.53
2023-05-21T09:01:18.761Z,18.10
2023-05-21T09:03:48.467Z,18.51
2023-05-21T09:06:16.298Z,18.84
2023-05-21T09:08:46.022Z,18.86
2023-05-21T09:11:15.241Z,18.54
2023-05-21T09:13:46.311Z,18.88
2023-05-21T09:16:14.098Z,18.86
2023-05-21T09:18:41.799Z,18.89
2023-05-21T09:24:07.198Z,18.88
2023-05-21T09:26:35.180Z,19.62
2023-05-21T09:29:02.915Z,19.21
2023-05-21T09:31:31.152Z,19.21
2023-05-21T09:33:58.925Z,19.00
2023-05-21T09:36:29.348Z,18.81
2023-05-21T09:38:59.868Z,18.90
2023-05-21T09:41:35.803Z,19.44
2023-05-21T09:44:04.368Z,19.51
2023-05-21T09:46:40.088Z,19.91
2023-05-21T09:49:07.898Z,19.67
2023-05-21T09:51:39.743Z,19.93
2023-05-21T09:54:07.533Z,20.69
2023-05-21T09:56:36.887Z,20.65
2023-05-21T09:59:05.197Z,20.77
2023-05-21T10:01:34.386Z,20.39
2023-05-21T10:04:07.377Z,20.63
2023-05-21T10:06:42.798Z,20.67
2023-05-21T10:09:12.539Z,20.64
2023-05-21T10:11:45.846Z,20.92
2023-05-21T10:14:20.726Z,20.66
2023-05-21T10:16:49.376Z,20.62
2023-05-21T10:19:17.999Z,21.02
2023-05-21T10:21:47.293Z,21.22
2023-05-21T10:24:16.435Z,20.07
2023-05-21T10:26:47.300Z,20.72
2023-05-21T10:29:19.606Z,21.39
2023-05-21T10:31:49.791Z,21.23
2023-05-21T10:34:17.914Z,20.22
2023-05-21T10:36:47.194Z,21.06
2023-05-21T10:39:17.217Z,20.92
2023-05-21T10:41:58.448Z,20.82
2023-05-21T10:44:41.741Z,20.58
2023-05-21T10:47:35.221Z,21.37
2023-05-21T10:50:17.574Z,21.28
2023-05-21T10:52:58.169Z,21.18
2023-05-21T10:55:39.978Z,21.06
2023-05-21T10:58:37.563Z,21.71
2023-05-21T11:03:36.671Z,22.09
2023-05-21T11:06:06.555Z,21.90
2023-05-21T11:08:36.156Z,21.92
2023-05-21T11:11:04.952Z,21.59
2023-05-21T11:13:49.256Z,21.74
2023-05-21T11:16:17.930Z,22.01
2023-05-21T11:19:01.626Z,22.83
2023-05-21T11:21:35.874Z,23.11
2023-05-21T11:24:06.673Z,22.51
2023-05-21T11:27:06.979Z,22.00
2023-05-21T11:29:44.639Z,21.88
2023-05-21T11:32:15.170Z,22.10
2023-05-21T11:34:47.220Z,21.59
2023-05-21T11:37:27.675Z,21.80
2023-05-21T11:39:56.132Z,22.23
2023-05-21T11:42:31.630Z,22.01
2023-05-21T11:45:02.238Z,21.85
2023-05-21T11:47:32.081Z,21.90
2023-05-21T11:50:01.526Z,22.54
2023-05-21T11:52:30.439Z,23.06
2023-05-21T11:54:59.760Z,21.99
2023-05-21T11:57:30.867Z,22.06
2023-05-21T12:00:02.334Z,22.91
2023-05-21T12:02:32.661Z,22.67
2023-05-21T12:05:00.995Z,22.41
2023-05-21T12:07:31.310Z,22.83
2023-05-21T12:09:59.508Z,22.98
2023-05-21T12:12:35.556Z,22.39
2023-05-21T12:15:15.010Z,22.84
2023-05-21T12:17:42.835Z,22.54
2023-05-21T12:20:16.538Z,23.03
2023-05-21T12:22:45.484Z,22.10
2023-05-21T12:25:13.235Z,22.11
2023-05-21T12:27:42.164Z,22.54
2023-05-21T12:30:11.106Z,22.52
2023-05-21T12:32:44.060Z,22.37
2023-05-21T12:35:21.487Z,22.29
2023-05-21T12:37:50.668Z,22.33
2023-05-21T12:40:18.982Z,22.46
2023-05-21T12:42:46.883Z,22.68
2023-05-21T12:45:18.407Z,22.51
2023-05-21T12:47:56.076Z,22.06
2023-05-21T12:50:24.499Z,22.54
2023-05-21T12:52:55.435Z,23.05
2023-05-21T12:55:24.665Z,23.06
2023-05-21T12:58:00.797Z,23.37
2023-05-21T13:00:28.536Z,23.28
2023-05-21T13:03:00.098Z,23.25
2023-05-21T13:05:27.977Z,22.99
2023-05-21T13:07:55.712Z,22.79
2023-05-21T13:10:23.644Z,23.34
2023-05-21T13:12:51.429Z,22.61
2023-05-21T13:15:19.620Z,22.46
2023-05-21T13:17:49.174Z,22.33
2023-05-21T13:20:34.495Z,23.08
2023-05-21T13:23:05.354Z,22.90
2023-05-21T13:25:34.023Z,22.41
2023-05-21T13:28:04.500Z,21.79
2023-05-21T13:30:33.247Z,22.49
2023-05-21T13:33:01.417Z,22.41
2023-05-21T13:35:32.218Z,22.88
2023-05-21T13:37:59.960Z,22.79
2023-05-21T13:40:27.802Z,22.52
2023-05-21T13:42:55.539Z,22.61
2023-05-21T13:45:28.864Z,22.50
2023-05-21T13:47:57.076Z,22.78
2023-05-21T13:50:25.451Z,22.59
2023-05-21T13:52:54.581Z,22.54
2023-05-21T13:55:22.359Z,22.59
2023-05-21T13:57:50.082Z,23.23
2023-05-21T14:00:17.835Z,23.71
2023-05-21T14:02:45.847Z,23.88
2023-05-21T14:05:13.931Z,24.13
2023-05-21T14:07:42.890Z,23.70
2023-05-21T14:10:12.691Z,24.02
2023-05-21T14:12:40.816Z,22.99
2023-05-21T14:15:09.353Z,23.73
2023-05-21T14:17:37.313Z,23.76
2023-05-21T14:20:06.149Z,22.91
2023-05-21T14:22:34.004Z,22.95
2023-05-21T14:25:03.058Z,22.68
2023-05-21T14:27:32.223Z,23.32
2023-05-21T14:29:59.969Z,23.56
2023-05-21T14:32:27.822Z,23.48
2023-05-21T14:34:56.830Z,23.46
2023-05-21T14:37:24.575Z,23.34
2023-05-21T14:39:52.310Z,23.71
2023-05-21T14:42:20.062Z,23.55
2023-05-21T14:44:49.251Z,23.51
2023-05-21T14:47:17.093Z,23.15
2023-05-21T14:49:44.822Z,23.57
2023-05-21T14:52:12.534Z,23.52
2023-05-21T14:54:40.302Z,23.23
2023-05-21T14:57:08.026Z,22.79
2023-05-21T14:59:35.848Z,23.14
2023-05-21T15:02:05.302Z,22.88
2023-05-21T15:04:33.318Z,23.08
2023-05-21T15:07:01.039Z,23.16
2023-05-21T15:09:28.790Z,23.11
2023-05-21T15:11:56.630Z,22.80
2023-05-21T15:14:24.354Z,23.03
2023-05-21T15:16:52.169Z,22.47
2023-05-21T15:19:21.495Z,22.73
2023-05-21T15:21:51.667Z,22.18
2023-05-21T15:24:19.447Z,22.90
2023-05-21T15:26:47.244Z,22.44
2023-05-21T15:29:14.961Z,22.64
2023-05-21T15:31:42.705Z,23.00
2023-05-21T15:34:10.640Z,23.14
2023-05-21T15:36:39.779Z,22.49
2023-05-21T15:39:07.535Z,22.70
2023-05-21T15:41:38.273Z,22.46
2023-05-21T15:44:06.214Z,22.44
2023-05-21T15:46:34.140Z,21.96
2023-05-21T15:49:01.940Z,22.62
2023-05-21T15:51:29.658Z,22.24
2023-05-21T15:53:58.809Z,22.99
2023-05-21T15:56:26.640Z,22.46
2023-05-21T15:58:54.366Z,21.97
2023-05-21T16:01:22.243Z,22.63
2023-05-21T16:03:50.134Z,22.52
2023-05-21T16:06:17.923Z,21.98
2023-05-21T16:08:45.806Z,22.23
2023-05-21T16:11:15.082Z,21.96
2023-05-21T16:13:42.867Z,22.06
2023-05-21T16:16:10.590Z,21.81
2023-05-21T16:18:38.531Z,21.82
2023-05-21T16:21:06.364Z,21.77
2023-05-21T16:23:34.306Z,21.94
2023-05-21T16:26:02.148Z,22.11
2023-05-21T16:28:31.227Z,21.91
2023-05-21T16:30:58.987Z,21.86
2023-05-21T16:33:26.842Z,21.85
2023-05-21T16:35:55.002Z,21.32
2023-05-21T16:38:23.393Z,21.82
2023-05-21T16:40:51.182Z,21.90
2023-05-21T16:43:18.943Z,21.87
2023-05-21T16:45:48.932Z,21.75
2023-05-21T16:48:17.450Z,21.39
2023-05-21T16:50:46.884Z,21.60
2023-05-21T16:53:14.709Z,21.52
2023-05-21T16:55:43.360Z,21.64
2023-05-21T16:58:13.420Z,21.61
2023-05-21T17:00:41.179Z,21.32
2023-05-21T17:03:11.193Z,21.09
2023-05-21T17:05:39.156Z,21.46
2023-05-21T17:08:08.604Z,21.56
2023-05-21T17:10:36.505Z,21.75
2023-05-21T17:13:17.567Z,21.88
2023-05-21T17:15:49.868Z,21.62
2023-05-21T17:18:19.022Z,21.69
2023-05-21T17:20:46.725Z,21.76
2023-05-21T17:23:14.737Z,21.61
2023-05-21T17:25:42.639Z,21.72
2023-05-21T17:28:11.275Z,21.78
2023-05-21T17:30:39.032Z,21.54
2023-05-21T17:33:07.764Z,20.93
2023-05-21T17:35:37.265Z,20.75
2023-05-21T17:38:05.341Z,21.22
2023-05-21T17:40:33.119Z,20.98
2023-05-21T17:43:00.939Z,20.88
2023-05-21T17:45:28.740Z,20.64
2023-05-21T17:47:59.622Z,21.30
2023-05-21T17:50:28.142Z,20.72
2023-05-21T17:52:57.341Z,21.08
2023-05-21T17:55:25.032Z,20.78
2023-05-21T17:57:52.763Z,20.76
2023-05-21T18:00:21.209Z,20.75
2023-05-21T18:02:49.026Z,20.64
2023-05-21T18:05:16.766Z,20.48
2023-05-21T18:07:44.541Z,20.37
2023-05-21T18:10:15.322Z,20.11
2023-05-21T18:12:43.860Z,20.96
2023-05-21T18:15:11.934Z,20.83
2023-05-21T18:17:39.727Z,20.87
2023-05-21T18:20:08.746Z,20.33
2023-05-21T18:22:37.302Z,20.39
2023-05-21T18:25:05.398Z,20.53
2023-05-21T18:27:34.615Z,20.48
2023-05-21T18:30:05.343Z,20.55
2023-05-21T18:32:33.308Z,20.00
2023-05-21T18:35:01.337Z,20.07
2023-05-21T18:37:29.553Z,19.73
2023-05-21T18:39:57.423Z,19.90
2023-05-21T18:42:25.177Z,20.06
2023-05-21T18:44:54.284Z,19.93
2023-05-21T18:47:22.817Z,19.87
2023-05-21T18:49:50.702Z,19.40
2023-05-21T18:52:18.458Z,19.87
2023-05-21T18:54:46.213Z,19.37
2023-05-21T18:57:13.956Z,19.75
2023-05-21T18:59:41.718Z,20.14
2023-05-21T19:02:11.341Z,19.87
2023-05-21T19:04:39.146Z,19.70
2023-05-21T19:07:06.944Z,19.35
2023-05-21T19:09:34.695Z,19.37
2023-05-21T19:12:02.651Z,19.09
2023-05-21T19:14:30.342Z,18.97
2023-05-21T19:16:58.100Z,19.18
2023-05-21T19:19:27.574Z,19.10
2023-05-21T19:21:55.511Z,19.34
2023-05-21T19:24:23.288Z,18.93
2023-05-21T19:26:51.031Z,19.53
2023-05-21T19:29:18.781Z,19.01
2023-05-21T19:31:46.767Z,18.90
2023-05-21T19:34:14.671Z,18.51
2023-05-21T19:36:52.866Z,18.50
2023-05-21T19:39:21.640Z,18.53
2023-05-21T19:41:49.494Z,18.60
2023-05-21T19:44:17.285Z,18.49
2023-05-21T19:46:45.125Z,18.56
2023-05-21T19:49:14.519Z,18.56
2023-05-21T19:51:43.752Z,18.28
2023-05-21T19:54:11.470Z,18.37
2023-05-21T19:56:39.371Z,18.45
2023-05-21T19:59:07.143Z,18.30
2023-05-21T20:01:39.515Z,18.13
2023-05-21T20:04:07.932Z,18.36
2023-05-21T20:06:35.767Z,18.60
2023-05-21T20:09:05.325Z,18.61
2023-05-21T20:11:33.294Z,18.47
2023-05-21T20:14:02.332Z,18.84
2023-05-21T20:16:30.583Z,18.69
2023-05-21T20:18:58.483Z,18.78
2023-05-21T20:21:26.323Z,18.44
2023-05-21T20:23:54.270Z,18.31
2023-05-21T20:26:23.432Z,18.37
2023-05-21T20:28:51.174Z,18.49
2023-05-21T20:31:19.096Z,18.08
2023-05-21T20:33:46.945Z,18.14
2023-05-21T20:36:15.335Z,18.04
2023-05-21T20:38:43.390Z,18.07
2023-05-21T20:41:11.217Z,17.68
2023-05-21T20:43:40.376Z,17.87
2023-05-21T20:46:08.203Z,17.70
2023-05-21T20:48:37.694Z,18.13
2023-05-21T20:51:06.066Z,17.79
2023-05-21T20:53:33.799Z,18.10
2023-05-21T20:56:01.828Z,17.90
2023-05-21T20:58:29.605Z,17.40
2023-05-21T21:00:58.734Z,17.55
2023-05-21T21:03:29.754Z,17.96
2023-05-21T21:05:59.456Z,17.70
2023-05-21T21:08:27.545Z,17.50
2023-05-21T21:10:55.382Z,17.33
2023-05-21T21:13:23.149Z,17.27
2023-05-21T21:15:51.033Z,17.60
2023-05-21T21:18:20.175Z,17.60
2023-05-21T21:20:49.794Z,17.74
2023-05-21T21:23:17.728Z,17.63
2023-05-21T21:25:45.659Z,17.74
2023-05-21T21:28:13.436Z,17.28
2023-05-21T21:30:41.420Z,17.64
2023-05-21T21:33:09.783Z,17.39
2023-05-21T21:35:40.168Z,17.35
2023-05-21T21:38:07.913Z,17.28
2023-05-21T21:40:35.727Z,16.89
2023-05-21T21:43:03.436Z,16.63
2023-05-21T21:45:31.343Z,16.66
2023-05-21T21:47:59.202Z,16.98
2023-05-21T21:50:26.994Z,16.49
2023-05-21T21:52:57.252Z,16.71
2023-05-21T21:55:24.976Z,16.74
2023-05-21T21:57:52.767Z,16.64
2023-05-21T22:00:21.079Z,16.40
2023-05-21T22:02:48.824Z,16.34
2023-05-21T22:05:16.910Z,16.74
2023-05-21T22:07:46.312Z,16.88
2023-05-21T22:10:16.161Z,16.79
2023-05-21T22:12:44.795Z,16.44
2023-05-21T22:15:20.153Z,16.77
2023-05-21T22:17:49.989Z,16.57
2023-05-21T22:20:18.492Z,16.46
2023-05-21T22:22:46.342Z,16.28
2023-05-21T22:25:15.696Z,16.37
2023-05-21T22:27:44.097Z,16.33
2023-05-21T22:30:12.707Z,16.19
2023-05-21T22:32:40.480Z,15.89
2023-05-21T22:35:09.040Z,15.94
2023-05-21T22:37:37.357Z,15.94
2023-05-21T22:40:06.316Z,16.28
2023-05-21T22:42:36.256Z,15.78
2023-05-21T22:45:04.407Z,16.07
2023-05-21T22:47:32.267Z,16.12
2023-05-21T22:50:04.216Z,16.22
2023-05-21T22:52:32.396Z,16.12
2023-05-21T22:55:00.742Z,15.70
2023-05-21T22:57:28.658Z,16.22
2023-05-21T22:59:57.762Z,16.24
2023-05-21T23:02:25.612Z,16.13
2023-05-21T23:04:53.386Z,15.93
2023-05-21T23:07:21.260Z,16.14
2023-05-21T23:09:51.612Z,15.98
2023-05-21T23:12:19.627Z,16.22
2023-05-21T23:14:47.675Z,16.24
2023-05-21T23:17:16.816Z,16.03
2023-05-21T23:19:44.676Z,15.91
2023-05-21T23:22:12.470Z,15.67
2023-05-21T23:24:40.242Z,15.57
2023-05-21T23:27:07.998Z,15.96
2023-05-21T23:29:36.098Z,15.89
2023-05-21T23:32:05.145Z,15.89
2023-05-21T23:34:34.422Z,15.97
2023-05-21T23:37:02.224Z,15.86
2023-05-21T23:39:30.028Z,15.78
2023-05-21T23:41:57.930Z,16.07
2023-05-21T23:44:25.838Z,15.80
2023-05-21T23:46:53.625Z,15.50
2023-05-21T23:49:21.420Z,15.78
2023-05-21T23:51:51.013Z,15.61
2023-05-21T23:54:18.922Z,15.53
2023-05-21T23:56:46.845Z,15.64
2023-05-21T23:59:16.255Z,15.65
